TAF Text Data
IDs:
Format:
Raw Decoded Include METAR

Data at: 0733 UTC 07 Apr 2020

Region: TOP
KATL 070730Z 0708/0812 25004KT P6SM SCT050 BKN150
  FM071500 25010G18KT P6SM VCSH SCT030 BKN060
  PROB30 0718/0724 6SM -SHRA BKN050
  FM080000 23007KT P6SM SCT030 BKN060
  FM080700 26006KT P6SM VCSH SCT005 BKN008


KBOS 070542Z 0706/0812 28006KT P6SM BKN150
  FM071500 29010G20KT P6SM SKC
  FM072200 24006KT P6SM SCT120
  FM072300 18006KT P6SM SCT120
  FM080000 14005KT P6SM SCT120
  FM080500 05004KT P6SM BKN090
  FM081100 04007KT 6SM BR VCSH OVC030


KBWI 070520Z 0706/0812 19003KT P6SM SCT060 BKN140
  FM071400 22005KT P6SM SCT030 BKN120
  FM072000 20006KT 6SM -SHRA SCT030 BKN120
  FM080000 19004KT P6SM SCT001 BKN100
  FM080500 23005KT 5SM BR BKN050


KCLE 070540Z 0706/0812 VRB03KT P6SM OVC080
  FM070900 VRB03KT P6SM VCSH OVC050
  FM071100 VRB03KT 6SM -SHRA BR OVC035
  TEMPO 0712/0715 4SM -SHRA BR
  FM071700 22005KT P6SM SCT025 OVC035
  FM072300 24007KT P6SM VCSH SCT025 OVC035
  FM080200 24009KT 4SM -SHRA BR SCT015 OVC025
  FM080700 28009KT P6SM OVC008


KCLT 070529Z 0706/0812 00000KT P6SM BKN100 BKN250
  FM071500 23010G19KT P6SM SCT060 BKN210
  PROB30 0719/0723 4SM TSRA BR BKN050CB
  FM080100 24007KT P6SM SCT070 BKN250


KCVG 070535Z 0706/0812 19005KT P6SM BKN060
  FM071300 21007KT P6SM SCT060
  FM071600 21012G21KT P6SM SCT060
  FM080000 24010KT P6SM VCSH BKN060
  FM080600 24013G21KT P6SM -SHRA VCTS BKN050CB
  FM081100 26009KT P6SM BKN025


KDCA 070520Z 0706/0812 19003KT P6SM SCT060 BKN130
  FM071900 23005KT 6SM -SHRA SCT050 OVC110
  FM080100 22005KT P6SM SCT080 BKN110
  FM080600 23006KT 6SM BR SCT008 BKN035


KDEN 070540Z 0706/0812 21007KT P6SM FEW120
  FM071300 19008KT P6SM FEW120 SCT220
  FM071900 30014G24KT P6SM FEW120 SCT220
  FM072300 35012G20KT P6SM SCT120 SCT200
  FM080400 21010KT P6SM FEW120 SCT200


KDFW 070522Z 0706/0812 18005KT 5SM BR OVC050
  TEMPO 0708/0712 5SM BR OVC025
  FM071500 21009KT P6SM OVC090
  FM072100 23012KT P6SM BKN250
  FM080200 20007KT P6SM BKN250


KDTW 070520Z 0706/0812 14005KT P6SM OVC045
  FM070800 12005KT 4SM -SHRA BR OVC025
  FM071100 12005KT 2SM -SHRA BR OVC007
  FM071500 12005KT 6SM BR OVC007
  FM072000 16007KT 6SM BR OVC015


KEWR 070523Z 0706/0812 32005KT P6SM SCT200
  FM071500 25009KT P6SM SCT100
  FM071900 15008KT P6SM BKN100
  FM080200 19006KT P6SM BKN050
  PROB30 0805/0809 5SM -SHRA OVC035
  FM080900 22006KT 5SM -SHRA OVC025


KFLL 070528Z 0706/0812 09010KT P6SM SCT020 SCT040 BKN250
  FM071400 11015KT P6SM FEW025 SCT050
  FM080200 15008KT P6SM FEW025 SCT250


KIAD 070520Z 0706/0812 00000KT P6SM SCT090 BKN130
  FM071900 25005KT 6SM -SHRA SCT030 OVC090
  FM080000 22006KT P6SM SCT008 OVC050
  FM080700 23005KT 6SM BR SCT001 BKN030
  FM081100 24006KT 6SM BR SCT001 BKN060


KIAH 070520Z 0706/0812 11004KT 1SM BR OVC003
  TEMPO 0706/0710 1/4SM FG
  FM071000 13003KT 1/2SM FG OVC002
  FM071500 22007KT P6SM SCT010 OVC015
  FM071800 20007KT P6SM VCSH BKN025 OVC050
  FM072100 19007KT P6SM SCT050 BKN080
  FM080200 19004KT P6SM MIFG OVC250


KJFK 070523Z 0706/0812 31006KT P6SM SCT200
  FM071500 21006KT P6SM SCT150
  FM071800 18011KT P6SM BKN100
  FM080200 19007KT P6SM BKN050
  PROB30 0805/0809 5SM -SHRA OVC035
  FM080900 22007KT 5SM -SHRA OVC025


KLAS 070548Z 0706/0812 28005KT P6SM VCSH BKN050 OVC060
  FM071100 VRB06KT P6SM -SHRA BKN040 OVC050
  TEMPO 0715/0719 -RA SCT025 BKN030
  FM072300 16008KT P6SM VCSH SCT050 BKN080
  FM080300 19006KT P6SM SCT080 BKN200


KLAX 070540Z 0706/0812 26006KT P6SM VCSH BKN050
  FM071900 25010KT 6SM -SHRA BR OVC030
  FM080300 26006KT P6SM VCSH BKN040
  FM080800 VRB03KT P6SM BKN050


KLGA 070523Z 0706/0812 32006KT P6SM SCT200
  FM071700 24009KT P6SM SCT100
  FM072000 19011KT P6SM BKN100
  FM080200 16008KT P6SM BKN050
  PROB30 0805/0809 5SM -SHRA OVC035
  FM080900 23007KT 5SM -SHRA OVC025


KMCO 070544Z 0706/0812 05003KT P6SM FEW060 FEW250
  FM071400 14006KT P6SM SCT035
  FM072230 11010KT P6SM SCT060 SCT090
  FM080300 19007KT P6SM FEW040 FEW090 SCT300
  FM080800 23005KT P6SM SCT015


KMDW 070721Z 0707/0812 00000KT P6SM OVC035
  FM070900 18003KT P6SM OVC020
  TEMPO 0709/0713 OVC010
  FM071300 23010KT P6SM BKN025
  FM071700 23015G25KT P6SM SCT030
  FM080200 31008KT P6SM SKC


KMEM 070520Z 0706/0812 20005KT P6SM SCT080 BKN120
  FM070800 20005KT P6SM BKN050
  FM071600 21012G18KT P6SM VCSH BKN015
  FM071900 21010G17KT P6SM VCTS BKN015CB
  FM072300 19008KT P6SM OVC015
  FM080300 20008KT P6SM OVC009


KMIA 070528Z 0706/0812 09009KT P6SM SCT020 SCT040 BKN250
  FM071500 12012KT P6SM FEW025 SCT050
  FM080200 15008KT P6SM FEW020 SCT250


KMSP 070553Z 0706/0812 14008KT 6SM -SHRA BR OVC012
  FM070800 VRB04KT 5SM -SHRA BR VCTS BKN008CB
  TEMPO 0708/0712 3SM -TSRA BR SCT008 BKN020CB
  FM071200 VRB03KT 2SM BR OVC003
  FM071400 27005KT 4SM BR BKN007
  FM071600 29006KT P6SM BKN022
  FM071800 31008KT P6SM SCT060


KORD 070718Z 0707/0812 VRB03KT P6SM OVC035
  FM070900 VRB03KT P6SM OVC015
  TEMPO 0709/0713 4SM BR OVC006
  FM071400 23010KT P6SM BKN025
  FM071700 23015G25KT P6SM SCT030
  FM080200 31008KT P6SM SKC


KPDX 070520Z 0706/0806 33008KT P6SM SCT050 BKN070
  FM070900 32004KT P6SM SCT070 SCT250
  FM071500 31003KT P6SM SCT020 OVC035
  FM071900 34005KT P6SM SCT025 BKN250
  FM072200 35006KT P6SM BKN250


KPHL 070537Z 0706/0812 00000KT P6SM SCT150
  FM071600 21005KT P6SM BKN070
  FM072300 22006KT P6SM VCSH OVC100
  FM080600 VRB04KT P6SM -SHRA OVC030


KPHX 070520Z 0706/0812 26004KT P6SM SCT250
  FM070900 13004KT P6SM FEW250
  FM072000 18005KT P6SM SKC
  FM080000 23006KT P6SM SKC
  FM080100 25005KT P6SM SKC


KPIT 070531Z 0706/0812 19002KT P6SM OVC050
  FM071000 20003KT P6SM VCSH OVC030
  FM071200 19003KT 5SM SHRA OVC015
  FM072200 24006KT P6SM OVC035
  PROB30 0722/0801 P6SM TSRA BKN025CB
  FM080400 23004KT P6SM -SHRA VCTS BKN015CB
  FM081100 28006KT P6SM VCSH BKN008


KSAN 070712Z 0707/0812 25004KT 2SM -RA BR SCT004 BKN014 OVC020
  FM070830 22007KT P6SM -SHRA SCT015 OVC025
  FM072000 22007KT 4SM SHRA BKN015 OVC025
  FM080500 VRB04KT P6SM -SHRA SCT015 OVC025


KSEA 070520Z 0706/0812 VRB03KT P6SM FEW250
  FM071400 19006KT P6SM BKN030
  FM071900 23005KT P6SM SCT040 SCT200
  FM080300 VRB05KT P6SM SCT200


KSFO 070522Z 0706/0812 23004KT P6SM SCT050 SCT200
  FM071200 VRB03KT P6SM SCT035 BKN200
  FM072100 30009KT P6SM FEW035 SCT200
  FM080400 28005KT P6SM SCT200


KSLC 070520Z 0706/0812 15011KT P6SM SCT060 SCT120
  FM071800 17012G20KT P6SM SCT060 BKN120
  FM080300 15006KT P6SM SCT060 SCT120


KSTL 070520Z 0706/0812 19007KT P6SM BKN060
  FM071400 23012KT P6SM SCT045
  FM080300 25007KT P6SM VCSH SCT040
  FM080700 30006KT P6SM SCT120


KTPA 070544Z 0706/0812 VRB03KT P6SM FEW250
  FM071500 15006KT P6SM SCT035 SCT250
  FM071800 25009KT P6SM SCT040 SCT100
  FM072200 29011KT P6SM FEW050 SCT100
  FM080200 VRB03KT P6SM FEW250